sensor_id;sensor_type;location;lat;lon;timestamp;temperature;humidity
85808;DHT22;76250;48.718;9.000;2024-02-16T00:01:41;12.30;61.00
85808;DHT22;76250;48.718;9.000;2024-02-16T00:04:09;12.30;61.00
85808;DHT22;76250;48.718;9.000;2024-02-16T00:06:37;12.30;60.80
85808;DHT22;76250;48.718;9.000;2024-02-16T00:09:05;12.30;60.80
85808;DHT22;76250;48.718;9.000;2024-02-16T00:11:33;12.30;60.80
85808;DHT22;76250;48.718;9.000;2024-02-16T00:14:00;12.30;60.90
85808;DHT22;76250;48.718;9.000;2024-02-16T00:16:30;12.40;61.00
85808;DHT22;76250;48.718;9.000;2024-02-16T00:18:58;12.40;61.00
85808;DHT22;76250;48.718;9.000;2024-02-16T00:21:27;12.40;61.00
85808;DHT22;76250;48.718;9.000;2024-02-16T00:23:55;12.40;60.90
85808;DHT22;76250;48.718;9.000;2024-02-16T00:26:23;12.40;60.90
85808;DHT22;76250;48.718;9.000;2024-02-16T00:28:51;12.50;61.00
85808;DHT22;76250;48.718;9.000;2024-02-16T00:31:19;12.40;60.80
85808;DHT22;76250;48.718;9.000;2024-02-16T00:33:47;12.50;60.80
85808;DHT22;76250;48.718;9.000;2024-02-16T00:36:15;12.50;60.80
85808;DHT22;76250;48.718;9.000;2024-02-16T00:38:43;12.50;60.70
85808;DHT22;76250;48.718;9.000;2024-02-16T00:41:18;12.50;60.70
85808;DHT22;76250;48.718;9.000;2024-02-16T00:43:47;12.60;60.70
85808;DHT22;76250;48.718;9.000;2024-02-16T00:46:15;12.50;60.60
85808;DHT22;76250;48.718;9.000;2024-02-16T00:48:43;12.50;60.40
85808;DHT22;76250;48.718;9.000;2024-02-16T00:51:11;12.50;60.30
85808;DHT22;76250;48.718;9.000;2024-02-16T00:53:39;12.60;60.30
85808;DHT22;76250;48.718;9.000;2024-02-16T00:56:07;12.60;60.10
85808;DHT22;76250;48.718;9.000;2024-02-16T00:58:36;12.60;60.20
85808;DHT22;76250;48.718;9.000;2024-02-16T01:01:05;12.60;60.20
85808;DHT22;76250;48.718;9.000;2024-02-16T01:03:38;12.70;60.20
85808;DHT22;76250;48.718;9.000;2024-02-16T01:06:07;12.70;60.00
85808;DHT22;76250;48.718;9.000;2024-02-16T01:08:36;12.70;60.00
85808;DHT22;76250;48.718;9.000;2024-02-16T01:11:04;12.70;60.00
85808;DHT22;76250;48.718;9.000;2024-02-16T01:13:32;12.70;60.00
85808;DHT22;76250;48.718;9.000;2024-02-16T01:16:02;12.70;59.80
85808;DHT22;76250;48.718;9.000;2024-02-16T01:18:30;12.70;59.60
85808;DHT22;76250;48.718;9.000;2024-02-16T01:21:00;12.80;59.80
85808;DHT22;76250;48.718;9.000;2024-02-16T01:23:28;12.80;59.90
85808;DHT22;76250;48.718;9.000;2024-02-16T01:25:56;12.80;60.00
85808;DHT22;76250;48.718;9.000;2024-02-16T01:28:24;12.90;59.70
85808;DHT22;76250;48.718;9.000;2024-02-16T01:30:52;12.90;59.60
85808;DHT22;76250;48.718;9.000;2024-02-16T01:33:20;12.90;59.80
85808;DHT22;76250;48.718;9.000;2024-02-16T01:35:48;12.90;59.90
85808;DHT22;76250;48.718;9.000;2024-02-16T01:38:16;12.90;60.50
85808;DHT22;76250;48.718;9.000;2024-02-16T01:40:44;12.90;60.40
85808;DHT22;76250;48.718;9.000;2024-02-16T01:43:12;13.00;60.70
85808;DHT22;76250;48.718;9.000;2024-02-16T01:45:40;13.00;60.40
85808;DHT22;76250;48.718;9.000;2024-02-16T01:48:08;13.00;60.30
85808;DHT22;76250;48.718;9.000;2024-02-16T01:50:37;13.00;60.50
85808;DHT22;76250;48.718;9.000;2024-02-16T01:53:05;13.00;60.90
85808;DHT22;76250;48.718;9.000;2024-02-16T01:55:33;13.00;61.70
85808;DHT22;76250;48.718;9.000;2024-02-16T01:58:01;13.00;61.30
85808;DHT22;76250;48.718;9.000;2024-02-16T02:00:28;13.00;61.30
85808;DHT22;76250;48.718;9.000;2024-02-16T02:02:56;13.00;61.40
85808;DHT22;76250;48.718;9.000;2024-02-16T02:05:25;13.00;61.20
85808;DHT22;76250;48.718;9.000;2024-02-16T02:07:53;13.00;61.20
85808;DHT22;76250;48.718;9.000;2024-02-16T02:10:21;13.00;61.40
85808;DHT22;76250;48.718;9.000;2024-02-16T02:12:49;13.00;61.30
85808;DHT22;76250;48.718;9.000;2024-02-16T02:15:18;13.00;61.40
85808;DHT22;76250;48.718;9.000;2024-02-16T02:17:47;13.00;61.60
85808;DHT22;76250;48.718;9.000;2024-02-16T02:20:15;13.00;61.10
85808;DHT22;76250;48.718;9.000;2024-02-16T02:22:43;13.00;61.30
85808;DHT22;76250;48.718;9.000;2024-02-16T02:25:10;13.00;61.20
85808;DHT22;76250;48.718;9.000;2024-02-16T02:27:38;12.90;60.80
85808;DHT22;76250;48.718;9.000;2024-02-16T02:30:07;12.90;60.70
85808;DHT22;76250;48.718;9.000;2024-02-16T02:32:35;12.90;60.90
85808;DHT22;76250;48.718;9.000;2024-02-16T02:35:05;12.90;60.80
85808;DHT22;76250;48.718;9.000;2024-02-16T02:37:33;12.90;60.70
85808;DHT22;76250;48.718;9.000;2024-02-16T02:40:02;12.90;60.80
85808;DHT22;76250;48.718;9.000;2024-02-16T02:42:33;12.90;60.60
85808;DHT22;76250;48.718;9.000;2024-02-16T02:45:02;12.90;60.90
85808;DHT22;76250;48.718;9.000;2024-02-16T02:47:30;12.90;61.10
85808;DHT22;76250;48.718;9.000;2024-02-16T02:49:58;12.90;60.90
85808;DHT22;76250;48.718;9.000;2024-02-16T02:52:27;12.90;60.90
85808;DHT22;76250;48.718;9.000;2024-02-16T02:54:55;12.90;60.90
85808;DHT22;76250;48.718;9.000;2024-02-16T02:57:22;13.00;61.10
85808;DHT22;76250;48.718;9.000;2024-02-16T02:59:50;13.00;61.10
85808;DHT22;76250;48.718;9.000;2024-02-16T03:02:18;13.00;61.10
85808;DHT22;76250;48.718;9.000;2024-02-16T03:04:46;12.90;60.90
85808;DHT22;76250;48.718;9.000;2024-02-16T03:07:14;13.00;61.20
85808;DHT22;76250;48.718;9.000;2024-02-16T03:09:42;13.00;60.90
85808;DHT22;76250;48.718;9.000;2024-02-16T03:12:11;13.00;61.10
85808;DHT22;76250;48.718;9.000;2024-02-16T03:14:39;12.90;60.80
85808;DHT22;76250;48.718;9.000;2024-02-16T03:17:07;12.90;60.70
85808;DHT22;76250;48.718;9.000;2024-02-16T03:19:35;12.90;60.60
85808;DHT22;76250;48.718;9.000;2024-02-16T03:22:03;12.90;60.80
85808;DHT22;76250;48.718;9.000;2024-02-16T03:24:31;12.90;60.80
85808;DHT22;76250;48.718;9.000;2024-02-16T03:26:59;12.80;60.70
85808;DHT22;76250;48.718;9.000;2024-02-16T03:29:28;12.80;60.70
85808;DHT22;76250;48.718;9.000;2024-02-16T03:31:56;12.90;60.50
85808;DHT22;76250;48.718;9.000;2024-02-16T03:34:24;12.90;60.40
85808;DHT22;76250;48.718;9.000;2024-02-16T03:36:52;12.80;60.10
85808;DHT22;76250;48.718;9.000;2024-02-16T03:39:19;12.80;60.20
85808;DHT22;76250;48.718;9.000;2024-02-16T03:41:48;12.80;60.40
85808;DHT22;76250;48.718;9.000;2024-02-16T03:44:16;12.80;60.50
85808;DHT22;76250;48.718;9.000;2024-02-16T03:46:44;12.80;60.60
85808;DHT22;76250;48.718;9.000;2024-02-16T03:49:12;12.80;60.70
85808;DHT22;76250;48.718;9.000;2024-02-16T03:51:40;12.80;60.70
85808;DHT22;76250;48.718;9.000;2024-02-16T03:54:08;12.80;60.70
85808;DHT22;76250;48.718;9.000;2024-02-16T03:56:36;12.80;60.70
85808;DHT22;76250;48.718;9.000;2024-02-16T03:59:04;12.80;60.80
85808;DHT22;76250;48.718;9.000;2024-02-16T04:01:36;12.80;61.00
85808;DHT22;76250;48.718;9.000;2024-02-16T04:04:04;12.80;60.90
85808;DHT22;76250;48.718;9.000;2024-02-16T04:06:32;12.80;61.10
85808;DHT22;76250;48.718;9.000;2024-02-16T04:09:00;12.80;61.20
85808;DHT22;76250;48.718;9.000;2024-02-16T04:11:28;12.80;61.00
85808;DHT22;76250;48.718;9.000;2024-02-16T04:13:58;12.80;61.20
85808;DHT22;76250;48.718;9.000;2024-02-16T04:16:26;12.80;61.20
85808;DHT22;76250;48.718;9.000;2024-02-16T04:18:54;12.80;61.30
85808;DHT22;76250;48.718;9.000;2024-02-16T04:21:23;12.80;61.20
85808;DHT22;76250;48.718;9.000;2024-02-16T04:23:51;12.70;61.20
85808;DHT22;76250;48.718;9.000;2024-02-16T04:26:19;12.80;61.50
85808;DHT22;76250;48.718;9.000;2024-02-16T04:28:47;12.70;61.20
85808;DHT22;76250;48.718;9.000;2024-02-16T04:31:15;12.70;61.00
85808;DHT22;76250;48.718;9.000;2024-02-16T04:33:42;12.70;61.20
85808;DHT22;76250;48.718;9.000;2024-02-16T04:36:11;12.70;61.10
85808;DHT22;76250;48.718;9.000;2024-02-16T04:38:39;12.70;61.20
85808;DHT22;76250;48.718;9.000;2024-02-16T04:41:07;12.60;61.30
85808;DHT22;76250;48.718;9.000;2024-02-16T04:43:35;12.60;61.30
85808;DHT22;76250;48.718;9.000;2024-02-16T04:46:04;12.60;61.30
85808;DHT22;76250;48.718;9.000;2024-02-16T04:48:32;12.50;61.20
85808;DHT22;76250;48.718;9.000;2024-02-16T04:51:01;12.50;61.30
85808;DHT22;76250;48.718;9.000;2024-02-16T04:53:29;12.50;61.30
85808;DHT22;76250;48.718;9.000;2024-02-16T04:55:57;12.50;61.20
85808;DHT22;76250;48.718;9.000;2024-02-16T04:58:26;12.50;61.00
85808;DHT22;76250;48.718;9.000;2024-02-16T05:00:54;12.40;61.10
85808;DHT22;76250;48.718;9.000;2024-02-16T05:03:22;12.40;61.20
85808;DHT22;76250;48.718;9.000;2024-02-16T05:05:50;12.40;61.10
85808;DHT22;76250;48.718;9.000;2024-02-16T05:08:22;12.40;61.80
85808;DHT22;76250;48.718;9.000;2024-02-16T05:10:50;12.40;61.30
85808;DHT22;76250;48.718;9.000;2024-02-16T05:13:18;12.40;61.40
85808;DHT22;76250;48.718;9.000;2024-02-16T05:15:46;12.40;61.60
85808;DHT22;76250;48.718;9.000;2024-02-16T05:18:16;12.30;61.70
85808;DHT22;76250;48.718;9.000;2024-02-16T05:20:45;12.30;61.50
85808;DHT22;76250;48.718;9.000;2024-02-16T05:23:14;12.30;61.60
85808;DHT22;76250;48.718;9.000;2024-02-16T05:25:42;12.30;61.60
85808;DHT22;76250;48.718;9.000;2024-02-16T05:28:10;12.30;61.60
85808;DHT22;76250;48.718;9.000;2024-02-16T05:30:40;12.30;61.40
85808;DHT22;76250;48.718;9.000;2024-02-16T05:33:07;12.30;61.40
85808;DHT22;76250;48.718;9.000;2024-02-16T05:35:35;12.30;61.50
85808;DHT22;76250;48.718;9.000;2024-02-16T05:38:07;12.30;61.50
85808;DHT22;76250;48.718;9.000;2024-02-16T05:40:48;12.30;61.40
85808;DHT22;76250;48.718;9.000;2024-02-16T05:43:24;12.30;61.40
85808;DHT22;76250;48.718;9.000;2024-02-16T05:45:52;12.20;61.20
85808;DHT22;76250;48.718;9.000;2024-02-16T05:48:20;12.20;61.20
85808;DHT22;76250;48.718;9.000;2024-02-16T05:50:49;12.20;61.10
85808;DHT22;76250;48.718;9.000;2024-02-16T05:53:18;12.20;61.00
85808;DHT22;76250;48.718;9.000;2024-02-16T05:55:48;12.20;61.10
85808;DHT22;76250;48.718;9.000;2024-02-16T05:58:17;12.10;61.00
85808;DHT22;76250;48.718;9.000;2024-02-16T06:00:45;12.10;61.00
85808;DHT22;76250;48.718;9.000;2024-02-16T06:03:15;12.00;60.90
85808;DHT22;76250;48.718;9.000;2024-02-16T06:05:43;12.00;61.00
85808;DHT22;76250;48.718;9.000;2024-02-16T06:08:14;12.00;60.80
85808;DHT22;76250;48.718;9.000;2024-02-16T06:10:43;12.00;60.80
85808;DHT22;76250;48.718;9.000;2024-02-16T06:13:12;12.00;60.90
85808;DHT22;76250;48.718;9.000;2024-02-16T06:15:40;12.00;60.80
85808;DHT22;76250;48.718;9.000;2024-02-16T06:18:08;11.90;60.80
85808;DHT22;76250;48.718;9.000;2024-02-16T06:20:36;11.90;61.00
85808;DHT22;76250;48.718;9.000;2024-02-16T06:23:04;11.90;60.90
85808;DHT22;76250;48.718;9.000;2024-02-16T06:25:31;11.90;60.90
85808;DHT22;76250;48.718;9.000;2024-02-16T06:27:59;11.80;60.90
85808;DHT22;76250;48.718;9.000;2024-02-16T06:30:27;11.80;60.90
85808;DHT22;76250;48.718;9.000;2024-02-16T06:32:56;11.80;60.90
85808;DHT22;76250;48.718;9.000;2024-02-16T06:35:25;11.70;60.80
85808;DHT22;76250;48.718;9.000;2024-02-16T06:37:53;11.70;60.90
85808;DHT22;76250;48.718;9.000;2024-02-16T06:40:21;11.70;61.40
85808;DHT22;76250;48.718;9.000;2024-02-16T06:42:49;11.60;60.60
85808;DHT22;76250;48.718;9.000;2024-02-16T06:45:17;11.60;60.80
85808;DHT22;76250;48.718;9.000;2024-02-16T06:47:45;11.60;60.80
85808;DHT22;76250;48.718;9.000;2024-02-16T06:50:13;11.50;60.90
85808;DHT22;76250;48.718;9.000;2024-02-16T06:52:41;11.50;60.90
85808;DHT22;76250;48.718;9.000;2024-02-16T06:55:09;11.50;61.20
85808;DHT22;76250;48.718;9.000;2024-02-16T06:57:37;11.50;60.90
85808;DHT22;76250;48.718;9.000;2024-02-16T07:00:07;11.50;61.00
85808;DHT22;76250;48.718;9.000;2024-02-16T07:02:36;11.50;61.20
85808;DHT22;76250;48.718;9.000;2024-02-16T07:05:04;11.50;61.10
85808;DHT22;76250;48.718;9.000;2024-02-16T07:07:32;11.40;61.20
85808;DHT22;76250;48.718;9.000;2024-02-16T07:10:03;11.40;61.20
85808;DHT22;76250;48.718;9.000;2024-02-16T07:12:32;11.40;61.40
85808;DHT22;76250;48.718;9.000;2024-02-16T07:15:02;11.40;61.30
85808;DHT22;76250;48.718;9.000;2024-02-16T07:17:30;11.40;61.40
85808;DHT22;76250;48.718;9.000;2024-02-16T07:19:58;11.30;61.50
85808;DHT22;76250;48.718;9.000;2024-02-16T07:22:26;11.30;61.70
85808;DHT22;76250;48.718;9.000;2024-02-16T07:24:54;11.30;61.70
85808;DHT22;76250;48.718;9.000;2024-02-16T07:27:22;11.30;61.90
85808;DHT22;76250;48.718;9.000;2024-02-16T07:29:50;11.30;62.00
85808;DHT22;76250;48.718;9.000;2024-02-16T07:32:18;11.40;62.30
85808;DHT22;76250;48.718;9.000;2024-02-16T07:34:47;11.40;62.30
85808;DHT22;76250;48.718;9.000;2024-02-16T07:37:15;11.40;62.40
85808;DHT22;76250;48.718;9.000;2024-02-16T07:39:46;11.40;62.40
85808;DHT22;76250;48.718;9.000;2024-02-16T07:42:14;11.40;62.40
85808;DHT22;76250;48.718;9.000;2024-02-16T07:44:42;11.40;62.40
85808;DHT22;76250;48.718;9.000;2024-02-16T07:47:09;11.50;62.70
85808;DHT22;76250;48.718;9.000;2024-02-16T07:49:38;11.60;62.30
85808;DHT22;76250;48.718;9.000;2024-02-16T07:52:07;11.60;62.50
85808;DHT22;76250;48.718;9.000;2024-02-16T07:54:36;11.60;62.50
85808;DHT22;76250;48.718;9.000;2024-02-16T07:57:04;11.70;62.60
85808;DHT22;76250;48.718;9.000;2024-02-16T07:59:32;11.80;62.60
85808;DHT22;76250;48.718;9.000;2024-02-16T08:02:00;11.90;62.60
85808;DHT22;76250;48.718;9.000;2024-02-16T08:04:30;12.00;62.70
85808;DHT22;76250;48.718;9.000;2024-02-16T08:06:58;12.10;62.70
85808;DHT22;76250;48.718;9.000;2024-02-16T08:09:28;12.20;62.60
85808;DHT22;76250;48.718;9.000;2024-02-16T08:11:56;12.30;62.50
85808;DHT22;76250;48.718;9.000;2024-02-16T08:14:24;12.40;62.60
85808;DHT22;76250;48.718;9.000;2024-02-16T08:16:53;12.60;62.20
85808;DHT22;76250;48.718;9.000;2024-02-16T08:19:35;12.70;62.20
85808;DHT22;76250;48.718;9.000;2024-02-16T08:22:08;12.90;62.20
85808;DHT22;76250;48.718;9.000;2024-02-16T08:24:36;13.00;61.70
85808;DHT22;76250;48.718;9.000;2024-02-16T08:27:04;13.10;61.80
85808;DHT22;76250;48.718;9.000;2024-02-16T08:29:32;13.20;61.70
85808;DHT22;76250;48.718;9.000;2024-02-16T08:32:00;13.40;61.70
85808;DHT22;76250;48.718;9.000;2024-02-16T08:34:31;13.50;60.80
85808;DHT22;76250;48.718;9.000;2024-02-16T08:36:59;13.60;61.10
85808;DHT22;76250;48.718;9.000;2024-02-16T08:39:30;13.70;61.00
85808;DHT22;76250;48.718;9.000;2024-02-16T08:41:58;13.80;60.90
85808;DHT22;76250;48.718;9.000;2024-02-16T08:44:26;13.90;60.40
85808;DHT22;76250;48.718;9.000;2024-02-16T08:46:54;14.00;60.90
85808;DHT22;76250;48.718;9.000;2024-02-16T08:49:22;14.10;59.60
85808;DHT22;76250;48.718;9.000;2024-02-16T08:51:50;14.30;60.00
85808;DHT22;76250;48.718;9.000;2024-02-16T08:54:18;14.40;59.80
85808;DHT22;76250;48.718;9.000;2024-02-16T08:56:47;14.50;60.30
85808;DHT22;76250;48.718;9.000;2024-02-16T08:59:15;14.70;58.70
85808;DHT22;76250;48.718;9.000;2024-02-16T09:01:43;14.80;59.20
85808;DHT22;76250;48.718;9.000;2024-02-16T09:04:11;14.90;59.40
85808;DHT22;76250;48.718;9.000;2024-02-16T09:06:39;15.00;59.30
85808;DHT22;76250;48.718;9.000;2024-02-16T09:09:07;15.10;58.90
85808;DHT22;76250;48.718;9.000;2024-02-16T09:11:35;15.10;57.70
85808;DHT22;76250;48.718;9.000;2024-02-16T09:14:03;15.20;58.30
85808;DHT22;76250;48.718;9.000;2024-02-16T09:16:32;15.30;58.10
85808;DHT22;76250;48.718;9.000;2024-02-16T09:19:01;15.40;58.30
85808;DHT22;76250;48.718;9.000;2024-02-16T09:21:29;15.50;57.40
85808;DHT22;76250;48.718;9.000;2024-02-16T09:23:58;15.60;57.70
85808;DHT22;76250;48.718;9.000;2024-02-16T09:26:26;15.70;57.90
85808;DHT22;76250;48.718;9.000;2024-02-16T09:28:57;15.70;57.70
85808;DHT22;76250;48.718;9.000;2024-02-16T09:31:25;15.80;57.90
85808;DHT22;76250;48.718;9.000;2024-02-16T09:33:53;15.90;57.30
85808;DHT22;76250;48.718;9.000;2024-02-16T09:36:22;15.90;57.00
85808;DHT22;76250;48.718;9.000;2024-02-16T09:38:50;15.90;56.80
85808;DHT22;76250;48.718;9.000;2024-02-16T09:41:18;15.90;56.60
85808;DHT22;76250;48.718;9.000;2024-02-16T09:43:49;16.00;56.80
85808;DHT22;76250;48.718;9.000;2024-02-16T09:46:17;15.90;56.80
85808;DHT22;76250;48.718;9.000;2024-02-16T09:48:47;16.00;57.00
85808;DHT22;76250;48.718;9.000;2024-02-16T09:51:20;16.00;56.80
85808;DHT22;76250;48.718;9.000;2024-02-16T09:53:50;16.00;57.20
85808;DHT22;76250;48.718;9.000;2024-02-16T09:56:23;16.10;57.20
85808;DHT22;76250;48.718;9.000;2024-02-16T09:58:54;16.20;58.10
85808;DHT22;76250;48.718;9.000;2024-02-16T10:01:23;16.20;57.30
85808;DHT22;76250;48.718;9.000;2024-02-16T10:03:52;16.30;57.60
85808;DHT22;76250;48.718;9.000;2024-02-16T10:06:20;16.40;57.20
85808;DHT22;76250;48.718;9.000;2024-02-16T10:08:52;16.40;56.90
85808;DHT22;76250;48.718;9.000;2024-02-16T10:11:23;16.50;57.10
85808;DHT22;76250;48.718;9.000;2024-02-16T10:16:24;16.70;57.10
85808;DHT22;76250;48.718;9.000;2024-02-16T10:18:55;16.80;57.20
85808;DHT22;76250;48.718;9.000;2024-02-16T10:21:29;16.90;57.10
85808;DHT22;76250;48.718;9.000;2024-02-16T10:24:06;17.00;56.80
85808;DHT22;76250;48.718;9.000;2024-02-16T10:26:37;17.10;57.00
85808;DHT22;76250;48.718;9.000;2024-02-16T10:29:08;17.20;56.90
85808;DHT22;76250;48.718;9.000;2024-02-16T10:31:37;17.30;56.90
85808;DHT22;76250;48.718;9.000;2024-02-16T10:34:05;17.30;56.70
85808;DHT22;76250;48.718;9.000;2024-02-16T10:36:38;17.50;56.40
85808;DHT22;76250;48.718;9.000;2024-02-16T10:39:07;17.50;56.10
85808;DHT22;76250;48.718;9.000;2024-02-16T10:41:38;17.60;56.20
85808;DHT22;76250;48.718;9.000;2024-02-16T10:44:07;17.60;55.90
85808;DHT22;76250;48.718;9.000;2024-02-16T10:46:35;17.60;55.80
85808;DHT22;76250;48.718;9.000;2024-02-16T10:49:04;17.70;55.90
85808;DHT22;76250;48.718;9.000;2024-02-16T10:51:40;17.70;55.40
85808;DHT22;76250;48.718;9.000;2024-02-16T10:54:11;17.80;55.30
85808;DHT22;76250;48.718;9.000;2024-02-16T10:56:41;17.80;55.40
85808;DHT22;76250;48.718;9.000;2024-02-16T10:59:10;17.80;55.70
85808;DHT22;76250;48.718;9.000;2024-02-16T11:01:42;17.80;55.60
85808;DHT22;76250;48.718;9.000;2024-02-16T11:04:14;17.80;55.50
85808;DHT22;76250;48.718;9.000;2024-02-16T11:06:47;17.90;55.40
85808;DHT22;76250;48.718;9.000;2024-02-16T11:09:29;17.90;55.30
85808;DHT22;76250;48.718;9.000;2024-02-16T11:12:00;18.00;55.50
85808;DHT22;76250;48.718;9.000;2024-02-16T11:14:43;17.90;55.20
85808;DHT22;76250;48.718;9.000;2024-02-16T11:17:14;18.00;55.20
85808;DHT22;76250;48.718;9.000;2024-02-16T11:19:45;18.00;54.80
85808;DHT22;76250;48.718;9.000;2024-02-16T11:22:18;18.00;54.80
85808;DHT22;76250;48.718;9.000;2024-02-16T11:24:49;18.00;54.80
85808;DHT22;76250;48.718;9.000;2024-02-16T11:27:18;18.00;54.80
85808;DHT22;76250;48.718;9.000;2024-02-16T11:29:48;18.10;55.10
85808;DHT22;76250;48.718;9.000;2024-02-16T11:32:18;18.10;55.10
85808;DHT22;76250;48.718;9.000;2024-02-16T11:34:47;18.10;54.80
85808;DHT22;76250;48.718;9.000;2024-02-16T11:37:16;18.10;55.10
85808;DHT22;76250;48.718;9.000;2024-02-16T11:39:45;18.10;54.90
85808;DHT22;76250;48.718;9.000;2024-02-16T11:42:19;18.20;55.00
85808;DHT22;76250;48.718;9.000;2024-02-16T11:44:54;18.20;55.00
85808;DHT22;76250;48.718;9.000;2024-02-16T11:47:25;18.30;54.90
85808;DHT22;76250;48.718;9.000;2024-02-16T11:50:03;18.30;54.90
85808;DHT22;76250;48.718;9.000;2024-02-16T11:52:33;18.40;54.70
85808;DHT22;76250;48.718;9.000;2024-02-16T11:55:02;18.40;54.80
85808;DHT22;76250;48.718;9.000;2024-02-16T11:57:32;18.50;55.00
85808;DHT22;76250;48.718;9.000;2024-02-16T12:00:03;18.50;54.70
85808;DHT22;76250;48.718;9.000;2024-02-16T12:02:35;18.50;54.60
85808;DHT22;76250;48.718;9.000;2024-02-16T12:05:07;18.60;54.70
85808;DHT22;76250;48.718;9.000;2024-02-16T12:07:38;18.60;54.20
85808;DHT22;76250;48.718;9.000;2024-02-16T12:10:08;18.70;54.10
85808;DHT22;76250;48.718;9.000;2024-02-16T12:12:37;18.80;54.20
85808;DHT22;76250;48.718;9.000;2024-02-16T12:15:05;18.80;54.40
85808;DHT22;76250;48.718;9.000;2024-02-16T12:17:35;18.90;54.00
85808;DHT22;76250;48.718;9.000;2024-02-16T12:20:14;18.90;54.20
85808;DHT22;76250;48.718;9.000;2024-02-16T12:22:42;19.00;53.40
85808;DHT22;76250;48.718;9.000;2024-02-16T12:25:10;19.00;53.20
85808;DHT22;76250;48.718;9.000;2024-02-16T12:27:39;19.00;54.20
85808;DHT22;76250;48.718;9.000;2024-02-16T12:30:08;19.10;53.50
85808;DHT22;76250;48.718;9.000;2024-02-16T12:32:36;19.20;53.80
85808;DHT22;76250;48.718;9.000;2024-02-16T12:35:05;19.20;53.50
85808;DHT22;76250;48.718;9.000;2024-02-16T12:37:33;19.20;53.70
85808;DHT22;76250;48.718;9.000;2024-02-16T12:40:03;19.30;53.70
85808;DHT22;76250;48.718;9.000;2024-02-16T12:42:33;19.30;53.40
85808;DHT22;76250;48.718;9.000;2024-02-16T12:45:01;19.40;53.90
85808;DHT22;76250;48.718;9.000;2024-02-16T12:47:30;19.40;53.70
85808;DHT22;76250;48.718;9.000;2024-02-16T12:49:58;19.50;53.70
85808;DHT22;76250;48.718;9.000;2024-02-16T12:52:26;19.50;53.00
85808;DHT22;76250;48.718;9.000;2024-02-16T12:54:56;19.50;53.10
85808;DHT22;76250;48.718;9.000;2024-02-16T12:57:26;19.50;53.30
85808;DHT22;76250;48.718;9.000;2024-02-16T12:59:57;19.50;53.60
85808;DHT22;76250;48.718;9.000;2024-02-16T13:02:25;19.60;53.40
85808;DHT22;76250;48.718;9.000;2024-02-16T13:04:53;19.60;53.30
85808;DHT22;76250;48.718;9.000;2024-02-16T13:07:24;19.60;53.40
85808;DHT22;76250;48.718;9.000;2024-02-16T13:09:53;19.60;53.40
85808;DHT22;76250;48.718;9.000;2024-02-16T13:12:22;19.70;53.50
85808;DHT22;76250;48.718;9.000;2024-02-16T13:14:51;19.70;53.50
85808;DHT22;76250;48.718;9.000;2024-02-16T13:17:19;19.70;53.50
85808;DHT22;76250;48.718;9.000;2024-02-16T13:19:47;19.70;53.50
85808;DHT22;76250;48.718;9.000;2024-02-16T13:22:15;19.70;53.60
85808;DHT22;76250;48.718;9.000;2024-02-16T13:24:43;19.70;53.50
85808;DHT22;76250;48.718;9.000;2024-02-16T13:27:11;19.70;53.50
85808;DHT22;76250;48.718;9.000;2024-02-16T13:29:39;19.70;53.20
85808;DHT22;76250;48.718;9.000;2024-02-16T13:32:07;19.80;53.20
85808;DHT22;76250;48.718;9.000;2024-02-16T13:34:35;19.80;53.40
85808;DHT22;76250;48.718;9.000;2024-02-16T13:37:03;19.70;53.30
85808;DHT22;76250;48.718;9.000;2024-02-16T13:39:31;19.70;53.30
85808;DHT22;76250;48.718;9.000;2024-02-16T13:41:59;19.70;53.10
85808;DHT22;76250;48.718;9.000;2024-02-16T13:44:27;19.70;52.90
85808;DHT22;76250;48.718;9.000;2024-02-16T13:46:55;19.60;52.80
85808;DHT22;76250;48.718;9.000;2024-02-16T13:49:23;19.60;52.80
85808;DHT22;76250;48.718;9.000;2024-02-16T13:51:51;19.60;52.70
85808;DHT22;76250;48.718;9.000;2024-02-16T13:54:19;19.50;53.00
85808;DHT22;76250;48.718;9.000;2024-02-16T13:56:48;19.50;53.00
85808;DHT22;76250;48.718;9.000;2024-02-16T13:59:16;19.40;53.10
85808;DHT22;76250;48.718;9.000;2024-02-16T14:01:46;19.40;53.30
85808;DHT22;76250;48.718;9.000;2024-02-16T14:04:14;19.40;53.30
85808;DHT22;76250;48.718;9.000;2024-02-16T14:06:43;19.30;53.00
85808;DHT22;76250;48.718;9.000;2024-02-16T14:09:11;19.30;53.20
85808;DHT22;76250;48.718;9.000;2024-02-16T14:11:53;19.30;53.00
85808;DHT22;76250;48.718;9.000;2024-02-16T14:14:26;19.20;52.80
85808;DHT22;76250;48.718;9.000;2024-02-16T14:17:04;19.20;53.00
85808;DHT22;76250;48.718;9.000;2024-02-16T14:19:33;19.20;52.80
85808;DHT22;76250;48.718;9.000;2024-02-16T14:22:05;19.10;52.70
85808;DHT22;76250;48.718;9.000;2024-02-16T14:24:34;19.10;52.90
85808;DHT22;76250;48.718;9.000;2024-02-16T14:27:03;19.10;53.30
85808;DHT22;76250;48.718;9.000;2024-02-16T14:29:31;19.00;53.40
85808;DHT22;76250;48.718;9.000;2024-02-16T14:31:59;19.00;53.40
85808;DHT22;76250;48.718;9.000;2024-02-16T14:34:27;19.00;53.50
85808;DHT22;76250;48.718;9.000;2024-02-16T14:36:55;19.00;53.70
85808;DHT22;76250;48.718;9.000;2024-02-16T14:39:23;18.90;53.70
85808;DHT22;76250;48.718;9.000;2024-02-16T14:41:53;18.90;53.70
85808;DHT22;76250;48.718;9.000;2024-02-16T14:44:21;18.90;53.90
85808;DHT22;76250;48.718;9.000;2024-02-16T14:46:49;18.80;53.80
85808;DHT22;76250;48.718;9.000;2024-02-16T14:49:17;18.80;53.70
85808;DHT22;76250;48.718;9.000;2024-02-16T14:51:50;18.80;53.80
85808;DHT22;76250;48.718;9.000;2024-02-16T14:54:20;18.80;53.90
85808;DHT22;76250;48.718;9.000;2024-02-16T14:56:48;18.80;53.80
85808;DHT22;76250;48.718;9.000;2024-02-16T14:59:21;18.80;53.90
85808;DHT22;76250;48.718;9.000;2024-02-16T15:01:49;18.80;54.10
85808;DHT22;76250;48.718;9.000;2024-02-16T15:04:17;18.80;54.00
85808;DHT22;76250;48.718;9.000;2024-02-16T15:06:45;18.80;54.40
85808;DHT22;76250;48.718;9.000;2024-02-16T15:09:12;18.70;54.30
85808;DHT22;76250;48.718;9.000;2024-02-16T15:11:41;18.70;54.10
85808;DHT22;76250;48.718;9.000;2024-02-16T15:14:08;18.70;54.10
85808;DHT22;76250;48.718;9.000;2024-02-16T15:16:36;18.70;54.30
85808;DHT22;76250;48.718;9.000;2024-02-16T15:19:07;18.60;54.30
85808;DHT22;76250;48.718;9.000;2024-02-16T15:21:35;18.70;54.30
85808;DHT22;76250;48.718;9.000;2024-02-16T15:24:04;18.60;54.30
85808;DHT22;76250;48.718;9.000;2024-02-16T15:26:32;18.50;54.40
85808;DHT22;76250;48.718;9.000;2024-02-16T15:29:00;18.50;54.50
85808;DHT22;76250;48.718;9.000;2024-02-16T15:31:28;18.50;54.70
85808;DHT22;76250;48.718;9.000;2024-02-16T15:33:56;18.50;54.60
85808;DHT22;76250;48.718;9.000;2024-02-16T15:36:24;18.50;54.80
85808;DHT22;76250;48.718;9.000;2024-02-16T15:38:52;18.50;54.80
85808;DHT22;76250;48.718;9.000;2024-02-16T15:41:22;18.40;54.90
85808;DHT22;76250;48.718;9.000;2024-02-16T15:43:50;18.40;54.90